sensor_id;sensor_type;location;lat;lon;timestamp;P1;durP1;ratioP1;P2;durP2;ratioP2
60352;SDS011;46196;52.970;6.954;2023-08-06T00:00:16;14.00;;;8.13;;
60352;SDS011;46196;52.970;6.954;2023-08-06T00:02:42;12.32;;;8.27;;
60352;SDS011;46196;52.970;6.954;2023-08-06T00:05:08;12.77;;;9.20;;
60352;SDS011;46196;52.970;6.954;2023-08-06T00:07:33;15.18;;;9.45;;
60352;SDS011;46196;52.970;6.954;2023-08-06T00:09:59;11.82;;;8.88;;
60352;SDS011;46196;52.970;6.954;2023-08-06T00:12:25;13.45;;;8.48;;
60352;SDS011;46196;52.970;6.954;2023-08-06T00:14:51;15.75;;;9.40;;
60352;SDS011;46196;52.970;6.954;2023-08-06T00:17:17;17.08;;;8.50;;
60352;SDS011;46196;52.970;6.954;2023-08-06T00:19:43;17.25;;;9.45;;
60352;SDS011;46196;52.970;6.954;2023-08-06T00:22:09;13.57;;;9.10;;
60352;SDS011;46196;52.970;6.954;2023-08-06T00:24:34;12.07;;;9.02;;
60352;SDS011;46196;52.970;6.954;2023-08-06T00:27:00;13.95;;;8.80;;
60352;SDS011;46196;52.970;6.954;2023-08-06T00:29:26;12.25;;;8.75;;
60352;SDS011;46196;52.970;6.954;2023-08-06T00:31:52;11.68;;;8.32;;
60352;SDS011;46196;52.970;6.954;2023-08-06T00:34:18;14.18;;;8.80;;
60352;SDS011;46196;52.970;6.954;2023-08-06T00:36:44;13.93;;;9.13;;
60352;SDS011;46196;52.970;6.954;2023-08-06T00:39:09;13.60;;;8.32;;
60352;SDS011;46196;52.970;6.954;2023-08-06T00:41:36;15.25;;;8.30;;
60352;SDS011;46196;52.970;6.954;2023-08-06T00:44:01;14.40;;;9.38;;
60352;SDS011;46196;52.970;6.954;2023-08-06T00:46:27;17.13;;;8.80;;
60352;SDS011;46196;52.970;6.954;2023-08-06T00:48:53;12.18;;;8.32;;
60352;SDS011;46196;52.970;6.954;2023-08-06T00:51:20;12.30;;;8.93;;
60352;SDS011;46196;52.970;6.954;2023-08-06T00:53:46;15.65;;;9.52;;
60352;SDS011;46196;52.970;6.954;2023-08-06T00:56:12;12.93;;;9.07;;
60352;SDS011;46196;52.970;6.954;2023-08-06T00:58:39;12.88;;;8.90;;
60352;SDS011;46196;52.970;6.954;2023-08-06T01:01:05;11.43;;;8.52;;
60352;SDS011;46196;52.970;6.954;2023-08-06T01:03:31;13.15;;;9.23;;
60352;SDS011;46196;52.970;6.954;2023-08-06T01:05:57;13.80;;;9.18;;
60352;SDS011;46196;52.970;6.954;2023-08-06T01:08:30;14.52;;;9.30;;
60352;SDS011;46196;52.970;6.954;2023-08-06T01:14:17;13.70;;;8.32;;
60352;SDS011;46196;52.970;6.954;2023-08-06T01:16:46;12.75;;;8.70;;
60352;SDS011;46196;52.970;6.954;2023-08-06T01:19:16;18.15;;;9.63;;
60352;SDS011;46196;52.970;6.954;2023-08-06T01:21:42;13.80;;;8.85;;
60352;SDS011;46196;52.970;6.954;2023-08-06T01:24:08;14.27;;;8.60;;
60352;SDS011;46196;52.970;6.954;2023-08-06T01:26:39;11.57;;;8.45;;
60352;SDS011;46196;52.970;6.954;2023-08-06T01:29:19;14.43;;;8.80;;
60352;SDS011;46196;52.970;6.954;2023-08-06T01:31:53;12.80;;;8.63;;
60352;SDS011;46196;52.970;6.954;2023-08-06T01:34:22;14.03;;;8.70;;
60352;SDS011;46196;52.970;6.954;2023-08-06T01:36:50;13.85;;;7.82;;
60352;SDS011;46196;52.970;6.954;2023-08-06T01:39:16;12.18;;;8.50;;
60352;SDS011;46196;52.970;6.954;2023-08-06T01:41:42;12.80;;;8.00;;
60352;SDS011;46196;52.970;6.954;2023-08-06T01:44:07;13.73;;;8.35;;
60352;SDS011;46196;52.970;6.954;2023-08-06T01:46:33;11.48;;;8.38;;
60352;SDS011;46196;52.970;6.954;2023-08-06T01:48:59;17.65;;;8.90;;
60352;SDS011;46196;52.970;6.954;2023-08-06T01:51:24;15.63;;;9.00;;
60352;SDS011;46196;52.970;6.954;2023-08-06T01:53:50;13.38;;;8.85;;
60352;SDS011;46196;52.970;6.954;2023-08-06T01:56:16;14.52;;;8.60;;
60352;SDS011;46196;52.970;6.954;2023-08-06T01:58:42;13.02;;;8.57;;
60352;SDS011;46196;52.970;6.954;2023-08-06T02:01:08;12.85;;;8.77;;
60352;SDS011;46196;52.970;6.954;2023-08-06T02:03:33;12.70;;;8.27;;
60352;SDS011;46196;52.970;6.954;2023-08-06T02:05:59;12.48;;;8.75;;
60352;SDS011;46196;52.970;6.954;2023-08-06T02:08:24;13.05;;;9.18;;
60352;SDS011;46196;52.970;6.954;2023-08-06T02:10:52;11.57;;;8.20;;
60352;SDS011;46196;52.970;6.954;2023-08-06T02:13:18;11.55;;;7.95;;
60352;SDS011;46196;52.970;6.954;2023-08-06T02:15:45;16.33;;;8.73;;
60352;SDS011;46196;52.970;6.954;2023-08-06T02:18:14;15.32;;;9.38;;
60352;SDS011;46196;52.970;6.954;2023-08-06T02:20:40;15.13;;;8.70;;
60352;SDS011;46196;52.970;6.954;2023-08-06T02:23:06;12.88;;;8.90;;
60352;SDS011;46196;52.970;6.954;2023-08-06T02:25:32;12.95;;;8.88;;
60352;SDS011;46196;52.970;6.954;2023-08-06T02:27:58;13.95;;;9.32;;
60352;SDS011;46196;52.970;6.954;2023-08-06T02:30:23;12.73;;;8.48;;
60352;SDS011;46196;52.970;6.954;2023-08-06T02:32:49;19.35;;;9.40;;
60352;SDS011;46196;52.970;6.954;2023-08-06T02:35:15;13.80;;;9.43;;
60352;SDS011;46196;52.970;6.954;2023-08-06T02:37:41;12.93;;;8.82;;
60352;SDS011;46196;52.970;6.954;2023-08-06T02:40:07;13.90;;;9.05;;
60352;SDS011;46196;52.970;6.954;2023-08-06T02:42:33;14.85;;;8.90;;
60352;SDS011;46196;52.970;6.954;2023-08-06T02:44:59;13.93;;;9.20;;
60352;SDS011;46196;52.970;6.954;2023-08-06T02:47:25;14.23;;;9.13;;
60352;SDS011;46196;52.970;6.954;2023-08-06T02:49:51;15.27;;;9.27;;
60352;SDS011;46196;52.970;6.954;2023-08-06T02:52:17;12.85;;;9.55;;
60352;SDS011;46196;52.970;6.954;2023-08-06T02:54:43;13.13;;;9.10;;
60352;SDS011;46196;52.970;6.954;2023-08-06T02:57:09;12.95;;;8.85;;
60352;SDS011;46196;52.970;6.954;2023-08-06T02:59:34;11.70;;;8.57;;
60352;SDS011;46196;52.970;6.954;2023-08-06T03:02:00;11.18;;;8.57;;
60352;SDS011;46196;52.970;6.954;2023-08-06T03:04:26;13.75;;;9.15;;
60352;SDS011;46196;52.970;6.954;2023-08-06T03:06:52;13.60;;;9.43;;
60352;SDS011;46196;52.970;6.954;2023-08-06T03:09:18;14.95;;;9.07;;
60352;SDS011;46196;52.970;6.954;2023-08-06T03:11:44;14.40;;;8.30;;
60352;SDS011;46196;52.970;6.954;2023-08-06T03:14:09;13.65;;;8.68;;
60352;SDS011;46196;52.970;6.954;2023-08-06T03:16:35;12.30;;;8.55;;
60352;SDS011;46196;52.970;6.954;2023-08-06T03:19:01;11.85;;;8.32;;
60352;SDS011;46196;52.970;6.954;2023-08-06T03:21:27;16.17;;;9.07;;
60352;SDS011;46196;52.970;6.954;2023-08-06T03:23:52;12.85;;;9.27;;
60352;SDS011;46196;52.970;6.954;2023-08-06T03:26:18;13.10;;;9.07;;
60352;SDS011;46196;52.970;6.954;2023-08-06T03:28:44;13.27;;;8.65;;
60352;SDS011;46196;52.970;6.954;2023-08-06T03:31:10;14.32;;;9.02;;
60352;SDS011;46196;52.970;6.954;2023-08-06T03:33:35;13.70;;;9.18;;
60352;SDS011;46196;52.970;6.954;2023-08-06T03:36:01;14.20;;;9.35;;
60352;SDS011;46196;52.970;6.954;2023-08-06T03:38:27;13.80;;;9.95;;
60352;SDS011;46196;52.970;6.954;2023-08-06T03:40:53;13.55;;;9.32;;
60352;SDS011;46196;52.970;6.954;2023-08-06T03:43:18;14.57;;;9.45;;
60352;SDS011;46196;52.970;6.954;2023-08-06T03:45:44;14.70;;;9.60;;
60352;SDS011;46196;52.970;6.954;2023-08-06T03:48:10;19.02;;;10.20;;
60352;SDS011;46196;52.970;6.954;2023-08-06T03:50:36;14.07;;;9.75;;
60352;SDS011;46196;52.970;6.954;2023-08-06T03:53:03;14.25;;;9.65;;
60352;SDS011;46196;52.970;6.954;2023-08-06T03:55:29;15.02;;;9.85;;
60352;SDS011;46196;52.970;6.954;2023-08-06T03:57:54;13.98;;;10.00;;
60352;SDS011;46196;52.970;6.954;2023-08-06T04:00:20;15.50;;;10.25;;
60352;SDS011;46196;52.970;6.954;2023-08-06T04:02:46;13.10;;;9.23;;
60352;SDS011;46196;52.970;6.954;2023-08-06T04:05:11;16.48;;;10.25;;
60352;SDS011;46196;52.970;6.954;2023-08-06T04:07:37;15.00;;;9.75;;
60352;SDS011;46196;52.970;6.954;2023-08-06T04:10:04;13.60;;;10.57;;
60352;SDS011;46196;52.970;6.954;2023-08-06T04:12:30;14.32;;;9.77;;
60352;SDS011;46196;52.970;6.954;2023-08-06T04:14:59;17.08;;;10.13;;
60352;SDS011;46196;52.970;6.954;2023-08-06T04:17:25;15.68;;;10.20;;
60352;SDS011;46196;52.970;6.954;2023-08-06T04:19:52;16.10;;;10.05;;
60352;SDS011;46196;52.970;6.954;2023-08-06T04:22:19;14.90;;;10.20;;
60352;SDS011;46196;52.970;6.954;2023-08-06T04:24:45;14.98;;;10.25;;
60352;SDS011;46196;52.970;6.954;2023-08-06T04:27:11;16.30;;;10.52;;
60352;SDS011;46196;52.970;6.954;2023-08-06T04:29:38;15.40;;;10.02;;
60352;SDS011;46196;52.970;6.954;2023-08-06T04:32:05;16.65;;;9.52;;
60352;SDS011;46196;52.970;6.954;2023-08-06T04:34:32;15.48;;;9.73;;
60352;SDS011;46196;52.970;6.954;2023-08-06T04:36:59;13.65;;;9.20;;
60352;SDS011;46196;52.970;6.954;2023-08-06T04:39:25;14.55;;;9.63;;
60352;SDS011;46196;52.970;6.954;2023-08-06T04:41:53;19.33;;;10.13;;
60352;SDS011;46196;52.970;6.954;2023-08-06T04:44:20;14.20;;;9.43;;
60352;SDS011;46196;52.970;6.954;2023-08-06T04:46:46;13.82;;;8.88;;
60352;SDS011;46196;52.970;6.954;2023-08-06T04:49:11;16.02;;;10.10;;
60352;SDS011;46196;52.970;6.954;2023-08-06T04:51:37;14.18;;;9.13;;
60352;SDS011;46196;52.970;6.954;2023-08-06T04:54:03;14.77;;;9.02;;
60352;SDS011;46196;52.970;6.954;2023-08-06T04:56:29;15.88;;;9.45;;
60352;SDS011;46196;52.970;6.954;2023-08-06T04:58:55;14.10;;;9.85;;
60352;SDS011;46196;52.970;6.954;2023-08-06T05:01:20;13.02;;;9.18;;
60352;SDS011;46196;52.970;6.954;2023-08-06T05:03:47;14.93;;;8.90;;
60352;SDS011;46196;52.970;6.954;2023-08-06T05:06:12;13.10;;;9.13;;
60352;SDS011;46196;52.970;6.954;2023-08-06T05:08:38;15.02;;;9.73;;
60352;SDS011;46196;52.970;6.954;2023-08-06T05:11:04;14.25;;;9.75;;
60352;SDS011;46196;52.970;6.954;2023-08-06T05:13:30;15.10;;;9.32;;
60352;SDS011;46196;52.970;6.954;2023-08-06T05:15:55;16.75;;;9.73;;
60352;SDS011;46196;52.970;6.954;2023-08-06T05:18:21;14.07;;;9.43;;
60352;SDS011;46196;52.970;6.954;2023-08-06T05:20:47;14.38;;;10.02;;
60352;SDS011;46196;52.970;6.954;2023-08-06T05:23:13;14.07;;;9.52;;
60352;SDS011;46196;52.970;6.954;2023-08-06T05:25:39;15.38;;;9.68;;
60352;SDS011;46196;52.970;6.954;2023-08-06T05:28:05;14.75;;;9.35;;
60352;SDS011;46196;52.970;6.954;2023-08-06T05:30:31;14.90;;;9.82;;
60352;SDS011;46196;52.970;6.954;2023-08-06T05:32:57;12.73;;;8.77;;
60352;SDS011;46196;52.970;6.954;2023-08-06T05:35:22;14.00;;;8.95;;
60352;SDS011;46196;52.970;6.954;2023-08-06T05:37:49;12.23;;;8.57;;
60352;SDS011;46196;52.970;6.954;2023-08-06T05:40:15;18.88;;;9.10;;
60352;SDS011;46196;52.970;6.954;2023-08-06T05:42:41;16.63;;;8.98;;
60352;SDS011;46196;52.970;6.954;2023-08-06T05:45:07;13.60;;;9.05;;
60352;SDS011;46196;52.970;6.954;2023-08-06T05:47:34;14.05;;;9.23;;
60352;SDS011;46196;52.970;6.954;2023-08-06T05:50:00;11.23;;;8.15;;
60352;SDS011;46196;52.970;6.954;2023-08-06T05:52:26;14.80;;;9.10;;
60352;SDS011;46196;52.970;6.954;2023-08-06T05:54:51;17.15;;;9.13;;
60352;SDS011;46196;52.970;6.954;2023-08-06T05:57:17;13.88;;;8.88;;
60352;SDS011;46196;52.970;6.954;2023-08-06T05:59:43;14.20;;;8.90;;
60352;SDS011;46196;52.970;6.954;2023-08-06T06:02:09;13.55;;;9.13;;
60352;SDS011;46196;52.970;6.954;2023-08-06T06:04:35;12.65;;;8.70;;
60352;SDS011;46196;52.970;6.954;2023-08-06T06:07:02;13.60;;;8.90;;
60352;SDS011;46196;52.970;6.954;2023-08-06T06:09:27;16.88;;;9.35;;
60352;SDS011;46196;52.970;6.954;2023-08-06T06:11:53;13.45;;;8.85;;
60352;SDS011;46196;52.970;6.954;2023-08-06T06:14:19;12.93;;;9.02;;
60352;SDS011;46196;52.970;6.954;2023-08-06T06:16:45;11.68;;;8.10;;
60352;SDS011;46196;52.970;6.954;2023-08-06T06:19:11;11.40;;;8.02;;
60352;SDS011;46196;52.970;6.954;2023-08-06T06:21:38;12.68;;;8.57;;
60352;SDS011;46196;52.970;6.954;2023-08-06T06:24:06;12.60;;;8.50;;
60352;SDS011;46196;52.970;6.954;2023-08-06T06:26:33;12.07;;;7.43;;
60352;SDS011;46196;52.970;6.954;2023-08-06T06:28:59;13.38;;;8.57;;
60352;SDS011;46196;52.970;6.954;2023-08-06T06:31:25;15.77;;;8.38;;
60352;SDS011;46196;52.970;6.954;2023-08-06T06:33:50;13.00;;;8.82;;
60352;SDS011;46196;52.970;6.954;2023-08-06T06:36:18;12.00;;;8.25;;
60352;SDS011;46196;52.970;6.954;2023-08-06T06:38:44;14.13;;;8.52;;
60352;SDS011;46196;52.970;6.954;2023-08-06T06:41:10;17.42;;;9.73;;
60352;SDS011;46196;52.970;6.954;2023-08-06T06:43:36;12.77;;;8.35;;
60352;SDS011;46196;52.970;6.954;2023-08-06T06:46:03;12.93;;;9.52;;
60352;SDS011;46196;52.970;6.954;2023-08-06T06:48:29;12.60;;;9.00;;
60352;SDS011;46196;52.970;6.954;2023-08-06T06:50:56;13.43;;;8.75;;
60352;SDS011;46196;52.970;6.954;2023-08-06T06:53:22;12.30;;;8.77;;
60352;SDS011;46196;52.970;6.954;2023-08-06T06:55:55;13.93;;;9.02;;
60352;SDS011;46196;52.970;6.954;2023-08-06T06:58:26;12.40;;;8.48;;
60352;SDS011;46196;52.970;6.954;2023-08-06T07:00:51;12.50;;;8.55;;
60352;SDS011;46196;52.970;6.954;2023-08-06T07:03:17;12.57;;;8.65;;
60352;SDS011;46196;52.970;6.954;2023-08-06T07:05:44;11.38;;;8.38;;
60352;SDS011;46196;52.970;6.954;2023-08-06T07:08:10;12.95;;;9.00;;
60352;SDS011;46196;52.970;6.954;2023-08-06T07:10:36;12.55;;;8.77;;
60352;SDS011;46196;52.970;6.954;2023-08-06T07:13:02;11.77;;;8.35;;
60352;SDS011;46196;52.970;6.954;2023-08-06T07:15:28;11.73;;;8.20;;
60352;SDS011;46196;52.970;6.954;2023-08-06T07:17:54;13.13;;;7.82;;
60352;SDS011;46196;52.970;6.954;2023-08-06T07:20:20;11.88;;;8.05;;
60352;SDS011;46196;52.970;6.954;2023-08-06T07:22:46;11.27;;;8.07;;
60352;SDS011;46196;52.970;6.954;2023-08-06T07:25:12;11.38;;;8.15;;
60352;SDS011;46196;52.970;6.954;2023-08-06T07:27:38;10.48;;;8.25;;
60352;SDS011;46196;52.970;6.954;2023-08-06T07:30:04;10.02;;;7.72;;
60352;SDS011;46196;52.970;6.954;2023-08-06T07:32:31;11.23;;;8.13;;
60352;SDS011;46196;52.970;6.954;2023-08-06T07:34:57;9.32;;;7.75;;
60352;SDS011;46196;52.970;6.954;2023-08-06T07:37:25;9.85;;;7.32;;
60352;SDS011;46196;52.970;6.954;2023-08-06T07:39:53;11.05;;;8.45;;
60352;SDS011;46196;52.970;6.954;2023-08-06T07:42:20;11.48;;;8.32;;
60352;SDS011;46196;52.970;6.954;2023-08-06T07:44:53;9.52;;;8.20;;
60352;SDS011;46196;52.970;6.954;2023-08-06T07:47:20;11.07;;;7.70;;
60352;SDS011;46196;52.970;6.954;2023-08-06T07:49:45;10.20;;;7.85;;
60352;SDS011;46196;52.970;6.954;2023-08-06T07:52:11;8.77;;;7.60;;
60352;SDS011;46196;52.970;6.954;2023-08-06T07:54:37;9.57;;;7.43;;
60352;SDS011;46196;52.970;6.954;2023-08-06T07:57:02;10.27;;;7.53;;
60352;SDS011;46196;52.970;6.954;2023-08-06T07:59:29;9.98;;;7.22;;
60352;SDS011;46196;52.970;6.954;2023-08-06T08:01:55;9.10;;;6.70;;
60352;SDS011;46196;52.970;6.954;2023-08-06T08:04:20;9.85;;;7.43;;
60352;SDS011;46196;52.970;6.954;2023-08-06T08:06:46;9.65;;;6.72;;
60352;SDS011;46196;52.970;6.954;2023-08-06T08:09:12;8.90;;;6.75;;
60352;SDS011;46196;52.970;6.954;2023-08-06T08:11:39;8.43;;;6.72;;
60352;SDS011;46196;52.970;6.954;2023-08-06T08:14:05;9.00;;;6.93;;
60352;SDS011;46196;52.970;6.954;2023-08-06T08:16:31;9.88;;;6.55;;
60352;SDS011;46196;52.970;6.954;2023-08-06T08:18:57;8.02;;;6.30;;
60352;SDS011;46196;52.970;6.954;2023-08-06T08:21:23;10.68;;;6.35;;
60352;SDS011;46196;52.970;6.954;2023-08-06T08:23:51;8.95;;;6.75;;
60352;SDS011;46196;52.970;6.954;2023-08-06T08:26:17;7.53;;;5.72;;
60352;SDS011;46196;52.970;6.954;2023-08-06T08:28:43;8.93;;;6.60;;
60352;SDS011;46196;52.970;6.954;2023-08-06T08:31:09;7.18;;;6.15;;
60352;SDS011;46196;52.970;6.954;2023-08-06T08:33:36;6.82;;;5.70;;
60352;SDS011;46196;52.970;6.954;2023-08-06T08:36:02;6.63;;;5.78;;
60352;SDS011;46196;52.970;6.954;2023-08-06T08:38:29;8.07;;;5.95;;
60352;SDS011;46196;52.970;6.954;2023-08-06T08:40:55;7.00;;;5.70;;
60352;SDS011;46196;52.970;6.954;2023-08-06T08:43:21;7.90;;;5.50;;
60352;SDS011;46196;52.970;6.954;2023-08-06T08:45:52;6.75;;;5.40;;
60352;SDS011;46196;52.970;6.954;2023-08-06T08:48:20;6.50;;;5.30;;
60352;SDS011;46196;52.970;6.954;2023-08-06T08:50:48;7.88;;;5.78;;
60352;SDS011;46196;52.970;6.954;2023-08-06T08:53:14;6.88;;;5.00;;
60352;SDS011;46196;52.970;6.954;2023-08-06T08:55:43;6.45;;;5.63;;
60352;SDS011;46196;52.970;6.954;2023-08-06T08:58:11;8.05;;;5.63;;
60352;SDS011;46196;52.970;6.954;2023-08-06T09:00:37;8.10;;;5.63;;
60352;SDS011;46196;52.970;6.954;2023-08-06T09:03:05;6.68;;;5.18;;
60352;SDS011;46196;52.970;6.954;2023-08-06T09:05:31;6.50;;;5.30;;
60352;SDS011;46196;52.970;6.954;2023-08-06T09:08:01;6.82;;;5.60;;
60352;SDS011;46196;52.970;6.954;2023-08-06T09:10:28;6.38;;;4.90;;
60352;SDS011;46196;52.970;6.954;2023-08-06T09:12:55;8.32;;;5.53;;
60352;SDS011;46196;52.970;6.954;2023-08-06T09:15:25;7.50;;;5.15;;
60352;SDS011;46196;52.970;6.954;2023-08-06T09:17:54;5.55;;;5.05;;
60352;SDS011;46196;52.970;6.954;2023-08-06T09:20:20;6.43;;;4.80;;
60352;SDS011;46196;52.970;6.954;2023-08-06T09:22:46;6.65;;;5.28;;
60352;SDS011;46196;52.970;6.954;2023-08-06T09:25:22;6.05;;;4.80;;
60352;SDS011;46196;52.970;6.954;2023-08-06T09:27:50;6.18;;;5.07;;
60352;SDS011;46196;52.970;6.954;2023-08-06T09:30:29;5.47;;;4.30;;
60352;SDS011;46196;52.970;6.954;2023-08-06T09:32:56;5.85;;;4.80;;
60352;SDS011;46196;52.970;6.954;2023-08-06T09:35:22;7.03;;;4.40;;
60352;SDS011;46196;52.970;6.954;2023-08-06T09:37:48;6.90;;;4.70;;
60352;SDS011;46196;52.970;6.954;2023-08-06T09:42:52;7.23;;;4.57;;
60352;SDS011;46196;52.970;6.954;2023-08-06T09:45:18;6.38;;;4.45;;
60352;SDS011;46196;52.970;6.954;2023-08-06T09:47:43;5.07;;;3.80;;
60352;SDS011;46196;52.970;6.954;2023-08-06T09:50:19;5.47;;;3.90;;
60352;SDS011;46196;52.970;6.954;2023-08-06T09:52:46;4.00;;;3.38;;
60352;SDS011;46196;52.970;6.954;2023-08-06T09:55:15;5.30;;;3.55;;
60352;SDS011;46196;52.970;6.954;2023-08-06T09:57:41;5.13;;;3.80;;
60352;SDS011;46196;52.970;6.954;2023-08-06T10:00:08;7.78;;;3.80;;
60352;SDS011;46196;52.970;6.954;2023-08-06T10:02:38;4.60;;;3.60;;
60352;SDS011;46196;52.970;6.954;2023-08-06T10:05:05;4.40;;;3.33;;
60352;SDS011;46196;52.970;6.954;2023-08-06T10:07:32;3.72;;;3.13;;
60352;SDS011;46196;52.970;6.954;2023-08-06T10:09:59;5.82;;;2.92;;
60352;SDS011;46196;52.970;6.954;2023-08-06T10:12:25;4.22;;;3.00;;
60352;SDS011;46196;52.970;6.954;2023-08-06T10:14:59;4.32;;;2.90;;
60352;SDS011;46196;52.970;6.954;2023-08-06T10:17:28;3.78;;;2.80;;
60352;SDS011;46196;52.970;6.954;2023-08-06T10:19:56;10.27;;;3.10;;
60352;SDS011;46196;52.970;6.954;2023-08-06T10:22:21;3.92;;;2.95;;
60352;SDS011;46196;52.970;6.954;2023-08-06T10:24:55;3.35;;;2.50;;
60352;SDS011;46196;52.970;6.954;2023-08-06T10:29:53;5.60;;;2.70;;
60352;SDS011;46196;52.970;6.954;2023-08-06T10:32:18;4.07;;;2.30;;
60352;SDS011;46196;52.970;6.954;2023-08-06T10:34:54;5.43;;;2.78;;
60352;SDS011;46196;52.970;6.954;2023-08-06T10:37:23;3.40;;;2.40;;
60352;SDS011;46196;52.970;6.954;2023-08-06T10:39:50;4.28;;;2.50;;
60352;SDS011;46196;52.970;6.954;2023-08-06T10:42:20;4.10;;;2.60;;
60352;SDS011;46196;52.970;6.954;2023-08-06T10:45:11;3.42;;;2.65;;
60352;SDS011;46196;52.970;6.954;2023-08-06T10:47:40;3.35;;;2.17;;
60352;SDS011;46196;52.970;6.954;2023-08-06T10:50:07;5.38;;;2.50;;
60352;SDS011;46196;52.970;6.954;2023-08-06T10:52:39;4.95;;;2.45;;
60352;SDS011;46196;52.970;6.954;2023-08-06T10:55:05;3.00;;;2.28;;
60352;SDS011;46196;52.970;6.954;2023-08-06T10:57:31;3.63;;;2.60;;
60352;SDS011;46196;52.970;6.954;2023-08-06T10:59:57;3.33;;;2.40;;
60352;SDS011;46196;52.970;6.954;2023-08-06T11:02:22;3.83;;;2.58;;
60352;SDS011;46196;52.970;6.954;2023-08-06T11:04:48;4.00;;;2.40;;
60352;SDS011;46196;52.970;6.954;2023-08-06T11:07:14;4.80;;;2.33;;
60352;SDS011;46196;52.970;6.954;2023-08-06T11:09:40;3.70;;;2.38;;
60352;SDS011;46196;52.970;6.954;2023-08-06T11:12:11;3.60;;;2.60;;
60352;SDS011;46196;52.970;6.954;2023-08-06T11:14:43;3.70;;;2.47;;
60352;SDS011;46196;52.970;6.954;2023-08-06T11:17:15;3.67;;;2.42;;
60352;SDS011;46196;52.970;6.954;2023-08-06T11:19:41;4.40;;;2.40;;
60352;SDS011;46196;52.970;6.954;2023-08-06T11:22:07;3.70;;;2.50;;
60352;SDS011;46196;52.970;6.954;2023-08-06T11:24:33;4.40;;;2.63;;
60352;SDS011;46196;52.970;6.954;2023-08-06T11:26:58;3.85;;;2.47;;
60352;SDS011;46196;52.970;6.954;2023-08-06T11:29:24;3.17;;;2.33;;
60352;SDS011;46196;52.970;6.954;2023-08-06T11:31:51;4.82;;;2.50;;
60352;SDS011;46196;52.970;6.954;2023-08-06T11:34:17;3.78;;;2.60;;
60352;SDS011;46196;52.970;6.954;2023-08-06T11:36:42;3.35;;;2.55;;
60352;SDS011;46196;52.970;6.954;2023-08-06T11:39:08;3.38;;;2.20;;
60352;SDS011;46196;52.970;6.954;2023-08-06T11:41:35;4.85;;;2.60;;
60352;SDS011;46196;52.970;6.954;2023-08-06T11:44:03;3.13;;;2.45;;
60352;SDS011;46196;52.970;6.954;2023-08-06T11:46:29;4.28;;;2.50;;
60352;SDS011;46196;52.970;6.954;2023-08-06T11:49:14;3.45;;;2.28;;
60352;SDS011;46196;52.970;6.954;2023-08-06T11:51:40;3.55;;;2.53;;
60352;SDS011;46196;52.970;6.954;2023-08-06T11:54:05;4.32;;;2.47;;
60352;SDS011;46196;52.970;6.954;2023-08-06T11:56:32;3.97;;;2.30;;
60352;SDS011;46196;52.970;6.954;2023-08-06T11:58:59;4.05;;;2.58;;
60352;SDS011;46196;52.970;6.954;2023-08-06T12:01:26;4.28;;;2.60;;
60352;SDS011;46196;52.970;6.954;2023-08-06T12:03:51;4.18;;;2.35;;
60352;SDS011;46196;52.970;6.954;2023-08-06T12:06:17;3.35;;;2.38;;
60352;SDS011;46196;52.970;6.954;2023-08-06T12:08:43;4.30;;;2.55;;
60352;SDS011;46196;52.970;6.954;2023-08-06T12:11:09;2.92;;;2.20;;
60352;SDS011;46196;52.970;6.954;2023-08-06T12:13:35;3.10;;;2.22;;
60352;SDS011;46196;52.970;6.954;2023-08-06T12:16:01;3.35;;;2.20;;
60352;SDS011;46196;52.970;6.954;2023-08-06T12:18:27;3.80;;;2.50;;
60352;SDS011;46196;52.970;6.954;2023-08-06T12:20:53;5.38;;;2.30;;
60352;SDS011;46196;52.970;6.954;2023-08-06T12:23:19;3.72;;;2.58;;
60352;SDS011;46196;52.970;6.954;2023-08-06T12:25:44;3.00;;;2.30;;
60352;SDS011;46196;52.970;6.954;2023-08-06T12:28:10;3.15;;;2.30;;
60352;SDS011;46196;52.970;6.954;2023-08-06T12:30:37;3.60;;;2.50;;
60352;SDS011;46196;52.970;6.954;2023-08-06T12:35:32;3.78;;;2.40;;
60352;SDS011;46196;52.970;6.954;2023-08-06T12:37:57;3.00;;;2.35;;
60352;SDS011;46196;52.970;6.954;2023-08-06T12:40:24;3.67;;;2.35;;
60352;SDS011;46196;52.970;6.954;2023-08-06T12:42:51;3.65;;;2.40;;
60352;SDS011;46196;52.970;6.954;2023-08-06T12:45:16;3.22;;;2.22;;
60352;SDS011;46196;52.970;6.954;2023-08-06T12:47:46;3.08;;;2.20;;
60352;SDS011;46196;52.970;6.954;2023-08-06T12:50:12;3.13;;;2.20;;
60352;SDS011;46196;52.970;6.954;2023-08-06T12:52:37;3.83;;;2.42;;
60352;SDS011;46196;52.970;6.954;2023-08-06T12:55:03;4.30;;;2.30;;
60352;SDS011;46196;52.970;6.954;2023-08-06T12:57:29;3.47;;;2.40;;
60352;SDS011;46196;52.970;6.954;2023-08-06T12:59:55;3.35;;;2.33;;
60352;SDS011;46196;52.970;6.954;2023-08-06T13:02:21;2.95;;;2.13;;
60352;SDS011;46196;52.970;6.954;2023-08-06T13:04:47;3.13;;;2.30;;
60352;SDS011;46196;52.970;6.954;2023-08-06T13:07:13;4.80;;;2.70;;
60352;SDS011;46196;52.970;6.954;2023-08-06T13:09:38;3.83;;;2.40;;
60352;SDS011;46196;52.970;6.954;2023-08-06T13:12:04;3.15;;;2.30;;
60352;SDS011;46196;52.970;6.954;2023-08-06T13:14:31;3.38;;;2.50;;
60352;SDS011;46196;52.970;6.954;2023-08-06T13:16:57;3.63;;;2.45;;
60352;SDS011;46196;52.970;6.954;2023-08-06T13:19:22;3.83;;;2.50;;
60352;SDS011;46196;52.970;6.954;2023-08-06T13:24:17;3.75;;;2.30;;
60352;SDS011;46196;52.970;6.954;2023-08-06T13:26:44;3.85;;;2.65;;
60352;SDS011;46196;52.970;6.954;2023-08-06T13:29:10;4.82;;;2.40;;
60352;SDS011;46196;52.970;6.954;2023-08-06T13:31:36;3.33;;;2.40;;
60352;SDS011;46196;52.970;6.954;2023-08-06T13:34:02;3.03;;;2.30;;
60352;SDS011;46196;52.970;6.954;2023-08-06T13:36:28;3.22;;;2.13;;
60352;SDS011;46196;52.970;6.954;2023-08-06T13:38:54;3.83;;;2.15;;
60352;SDS011;46196;52.970;6.954;2023-08-06T13:41:20;3.63;;;2.40;;
60352;SDS011;46196;52.970;6.954;2023-08-06T13:43:46;3.78;;;2.53;;
60352;SDS011;46196;52.970;6.954;2023-08-06T13:46:12;3.88;;;2.30;;
60352;SDS011;46196;52.970;6.954;2023-08-06T13:48:43;3.13;;;2.22;;
60352;SDS011;46196;52.970;6.954;2023-08-06T13:51:10;3.65;;;2.40;;
60352;SDS011;46196;52.970;6.954;2023-08-06T13:53:37;3.40;;;2.40;;
60352;SDS011;46196;52.970;6.954;2023-08-06T13:56:06;3.90;;;2.53;;
60352;SDS011;46196;52.970;6.954;2023-08-06T14:01:00;4.07;;;2.45;;
60352;SDS011;46196;52.970;6.954;2023-08-06T14:03:26;3.42;;;2.40;;
60352;SDS011;46196;52.970;6.954;2023-08-06T14:05:52;3.90;;;2.30;;
60352;SDS011;46196;52.970;6.954;2023-08-06T14:08:20;3.80;;;2.50;;
60352;SDS011;46196;52.970;6.954;2023-08-06T14:10:46;3.80;;;2.60;;
60352;SDS011;46196;52.970;6.954;2023-08-06T14:13:11;3.13;;;2.30;;
60352;SDS011;46196;52.970;6.954;2023-08-06T14:15:37;3.83;;;2.47;;
60352;SDS011;46196;52.970;6.954;2023-08-06T14:18:06;3.30;;;2.28;;
60352;SDS011;46196;52.970;6.954;2023-08-06T14:20:33;3.72;;;2.40;;
60352;SDS011;46196;52.970;6.954;2023-08-06T14:22:59;3.60;;;2.45;;
60352;SDS011;46196;52.970;6.954;2023-08-06T14:25:25;3.75;;;2.63;;
60352;SDS011;46196;52.970;6.954;2023-08-06T14:27:51;5.18;;;2.35;;
60352;SDS011;46196;52.970;6.954;2023-08-06T14:30:16;3.30;;;2.30;;
60352;SDS011;46196;52.970;6.954;2023-08-06T14:32:42;3.78;;;2.33;;
60352;SDS011;46196;52.970;6.954;2023-08-06T14:35:08;3.60;;;2.30;;
60352;SDS011;46196;52.970;6.954;2023-08-06T14:37:34;4.13;;;2.80;;
60352;SDS011;46196;52.970;6.954;2023-08-06T14:39:59;3.10;;;2.40;;
60352;SDS011;46196;52.970;6.954;2023-08-06T14:42:25;3.28;;;2.20;;
60352;SDS011;46196;52.970;6.954;2023-08-06T14:44:51;3.65;;;2.58;;
60352;SDS011;46196;52.970;6.954;2023-08-06T14:47:17;4.00;;;2.65;;
60352;SDS011;46196;52.970;6.954;2023-08-06T14:49:43;7.18;;;2.55;;
60352;SDS011;46196;52.970;6.954;2023-08-06T14:52:10;4.07;;;2.40;;